sensor_id;sensor_type;location;lat;lon;timestamp;pressure;altitude;pressure_sealevel;temperature;humidity
31403;BME280;18039;52.188;21.024;2023-02-04T00:00:14;77509.25;;;-141.45;100.00
31403;BME280;18039;52.188;21.024;2023-02-04T00:03:01;77525.47;;;-141.45;100.00
31403;BME280;18039;52.188;21.024;2023-02-04T00:05:29;77519.41;;;-141.45;100.00
31403;BME280;18039;52.188;21.024;2023-02-04T00:07:56;77525.47;;;-141.45;100.00
31403;BME280;18039;52.188;21.024;2023-02-04T00:10:23;77553.88;;;-141.45;100.00
31403;BME280;18039;52.188;21.024;2023-02-04T00:12:50;77545.75;;;-141.45;100.00
31403;BME280;18039;52.188;21.024;2023-02-04T00:15:17;77557.94;;;-141.45;100.00
31403;BME280;18039;52.188;21.024;2023-02-04T00:17:44;77574.16;;;-141.45;100.00
31403;BME280;18039;52.188;21.024;2023-02-04T00:20:12;77574.16;;;-141.45;100.00
31403;BME280;18039;52.188;21.024;2023-02-04T00:22:39;77564.00;;;-141.45;100.00
31403;BME280;18039;52.188;21.024;2023-02-04T00:25:06;77578.22;;;-141.45;100.00
31403;BME280;18039;52.188;21.024;2023-02-04T00:27:33;77592.41;;;-141.45;100.00
31403;BME280;18039;52.188;21.024;2023-02-04T00:30:01;77582.25;;;-141.45;100.00
31403;BME280;18039;52.188;21.024;2023-02-04T00:32:28;77590.38;;;-141.45;100.00
31403;BME280;18039;52.188;21.024;2023-02-04T00:34:56;77610.66;;;-141.45;100.00
31403;BME280;18039;52.188;21.024;2023-02-04T00:37:23;77610.66;;;-141.45;100.00
31403;BME280;18039;52.188;21.024;2023-02-04T00:39:50;77606.59;;;-141.45;100.00
31403;BME280;18039;52.188;21.024;2023-02-04T00:42:17;77626.88;;;-141.45;100.00
31403;BME280;18039;52.188;21.024;2023-02-04T00:44:44;77614.69;;;-141.45;100.00
31403;BME280;18039;52.188;21.024;2023-02-04T00:47:11;77620.78;;;-141.45;100.00
31403;BME280;18039;52.188;21.024;2023-02-04T00:49:39;77634.97;;;-141.45;100.00
31403;BME280;18039;52.188;21.024;2023-02-04T00:52:06;77651.19;;;-141.45;100.00
31403;BME280;18039;52.188;21.024;2023-02-04T00:54:34;77653.22;;;-141.45;100.00
31403;BME280;18039;52.188;21.024;2023-02-04T00:57:01;77657.28;;;-141.45;100.00
31403;BME280;18039;52.188;21.024;2023-02-04T00:59:28;77655.25;;;-141.45;100.00
31403;BME280;18039;52.188;21.024;2023-02-04T01:01:55;77667.44;;;-141.45;100.00
31403;BME280;18039;52.188;21.024;2023-02-04T01:04:23;77679.59;;;-141.45;100.00
31403;BME280;18039;52.188;21.024;2023-02-04T01:06:50;77675.53;;;-141.45;100.00
31403;BME280;18039;52.188;21.024;2023-02-04T01:09:17;77677.56;;;-141.45;100.00
31403;BME280;18039;52.188;21.024;2023-02-04T01:11:44;77687.69;;;-141.45;100.00
31403;BME280;18039;52.188;21.024;2023-02-04T01:14:12;77699.88;;;-141.45;100.00
31403;BME280;18039;52.188;21.024;2023-02-04T01:16:39;77720.16;;;-141.45;100.00
31403;BME280;18039;52.188;21.024;2023-02-04T01:19:06;77695.81;;;-141.45;100.00
31403;BME280;18039;52.188;21.024;2023-02-04T01:21:33;77720.16;;;-141.45;100.00
31403;BME280;18039;52.188;21.024;2023-02-04T01:24:00;77714.06;;;-141.45;100.00
31403;BME280;18039;52.188;21.024;2023-02-04T01:26:27;77732.31;;;-141.45;100.00
31403;BME280;18039;52.188;21.024;2023-02-04T01:28:55;77740.44;;;-141.45;100.00
31403;BME280;18039;52.188;21.024;2023-02-04T01:31:23;77752.59;;;-141.45;100.00
31403;BME280;18039;52.188;21.024;2023-02-04T01:33:51;77744.47;;;-141.45;100.00
31403;BME280;18039;52.188;21.024;2023-02-04T01:36:18;77760.69;;;-141.45;100.00
31403;BME280;18039;52.188;21.024;2023-02-04T01:38:48;77772.88;;;-141.45;100.00
31403;BME280;18039;52.188;21.024;2023-02-04T01:41:16;77770.84;;;-141.45;100.00
31403;BME280;18039;52.188;21.024;2023-02-04T01:43:45;77793.16;;;-141.45;100.00
31403;BME280;18039;52.188;21.024;2023-02-04T01:46:14;77793.16;;;-141.45;100.00
31403;BME280;18039;52.188;21.024;2023-02-04T01:48:41;77793.16;;;-141.45;100.00
31403;BME280;18039;52.188;21.024;2023-02-04T01:51:10;77797.19;;;-141.45;100.00
31403;BME280;18039;52.188;21.024;2023-02-04T01:53:39;77841.81;;;-141.45;100.00
31403;BME280;18039;52.188;21.024;2023-02-04T01:56:17;77821.53;;;-141.45;100.00
31403;BME280;18039;52.188;21.024;2023-02-04T01:58:46;77825.59;;;-141.45;100.00
31403;BME280;18039;52.188;21.024;2023-02-04T02:01:33;77829.66;;;-141.45;100.00
31403;BME280;18039;52.188;21.024;2023-02-04T02:04:01;77833.69;;;-141.45;100.00
31403;BME280;18039;52.188;21.024;2023-02-04T02:06:28;77837.75;;;-141.45;100.00
31403;BME280;18039;52.188;21.024;2023-02-04T02:08:55;77845.88;;;-141.45;100.00
31403;BME280;18039;52.188;21.024;2023-02-04T02:11:25;77849.94;;;-141.45;100.00
31403;BME280;18039;52.188;21.024;2023-02-04T02:13:52;77849.94;;;-141.45;100.00
31403;BME280;18039;52.188;21.024;2023-02-04T02:16:20;77858.03;;;-141.45;100.00
31403;BME280;18039;52.188;21.024;2023-02-04T02:18:48;77874.25;;;-141.45;100.00
31403;BME280;18039;52.188;21.024;2023-02-04T02:21:18;77882.38;;;-141.45;100.00
31403;BME280;18039;52.188;21.024;2023-02-04T02:23:53;77906.72;;;-141.45;100.00
31403;BME280;18039;52.188;21.024;2023-02-04T02:26:21;77902.66;;;-141.45;100.00
31403;BME280;18039;52.188;21.024;2023-02-04T02:28:50;77926.97;;;-141.45;100.00
31403;BME280;18039;52.188;21.024;2023-02-04T02:31:19;77918.88;;;-141.45;100.00
31403;BME280;18039;52.188;21.024;2023-02-04T02:33:48;77939.16;;;-141.45;100.00
31403;BME280;18039;52.188;21.024;2023-02-04T02:36:15;77926.97;;;-141.45;100.00
31403;BME280;18039;52.188;21.024;2023-02-04T02:38:42;77929.00;;;-141.45;100.00
31403;BME280;18039;52.188;21.024;2023-02-04T02:41:10;77939.16;;;-141.45;100.00
31403;BME280;18039;52.188;21.024;2023-02-04T02:43:37;77951.31;;;-141.45;100.00
31403;BME280;18039;52.188;21.024;2023-02-04T02:46:05;77959.44;;;-141.45;100.00
31403;BME280;18039;52.188;21.024;2023-02-04T02:48:33;77967.53;;;-141.45;100.00
31403;BME280;18039;52.188;21.024;2023-02-04T02:51:00;77971.59;;;-141.45;100.00
31403;BME280;18039;52.188;21.024;2023-02-04T02:53:27;77975.66;;;-141.45;100.00
31403;BME280;18039;52.188;21.024;2023-02-04T02:55:55;77987.81;;;-141.45;100.00
31403;BME280;18039;52.188;21.024;2023-02-04T02:58:29;78004.03;;;-141.45;100.00
31403;BME280;18039;52.188;21.024;2023-02-04T03:01:00;78008.09;;;-141.45;100.00
31403;BME280;18039;52.188;21.024;2023-02-04T03:03:32;78020.28;;;-141.45;100.00
31403;BME280;18039;52.188;21.024;2023-02-04T03:06:06;78024.31;;;-141.45;100.00
31403;BME280;18039;52.188;21.024;2023-02-04T03:08:36;78024.31;;;-141.45;100.00
31403;BME280;18039;52.188;21.024;2023-02-04T03:11:03;78028.38;;;-141.45;100.00
31403;BME280;18039;52.188;21.024;2023-02-04T03:13:31;78026.34;;;-141.45;100.00
31403;BME280;18039;52.188;21.024;2023-02-04T03:15:59;78040.56;;;-141.45;100.00
31403;BME280;18039;52.188;21.024;2023-02-04T03:18:28;78044.59;;;-141.45;100.00
31403;BME280;18039;52.188;21.024;2023-02-04T03:20:55;78048.66;;;-141.45;100.00
31403;BME280;18039;52.188;21.024;2023-02-04T03:23:22;78052.72;;;-141.45;100.00
31403;BME280;18039;52.188;21.024;2023-02-04T03:25:50;78052.72;;;-141.45;100.00
31403;BME280;18039;52.188;21.024;2023-02-04T03:28:18;78062.84;;;-141.45;100.00
31403;BME280;18039;52.188;21.024;2023-02-04T03:30:45;78060.81;;;-141.45;100.00
31403;BME280;18039;52.188;21.024;2023-02-04T03:33:19;78073.00;;;-141.45;100.00
31403;BME280;18039;52.188;21.024;2023-02-04T03:35:46;78089.22;;;-141.45;100.00
31403;BME280;18039;52.188;21.024;2023-02-04T03:38:13;78097.34;;;-141.45;100.00
31403;BME280;18039;52.188;21.024;2023-02-04T03:40:40;78109.50;;;-141.45;100.00
31403;BME280;18039;52.188;21.024;2023-02-04T03:43:08;78125.72;;;-141.45;100.00
31403;BME280;18039;52.188;21.024;2023-02-04T03:45:34;78123.69;;;-141.45;100.00
31403;BME280;18039;52.188;21.024;2023-02-04T03:48:12;78125.72;;;-141.45;100.00
31403;BME280;18039;52.188;21.024;2023-02-04T03:50:39;78133.84;;;-141.45;100.00
31403;BME280;18039;52.188;21.024;2023-02-04T03:53:06;78150.06;;;-141.45;100.00
31403;BME280;18039;52.188;21.024;2023-02-04T03:55:52;78158.16;;;-141.45;100.00
31403;BME280;18039;52.188;21.024;2023-02-04T03:58:19;78162.22;;;-141.45;100.00
31403;BME280;18039;52.188;21.024;2023-02-04T04:00:46;78166.28;;;-141.45;100.00
31403;BME280;18039;52.188;21.024;2023-02-04T04:03:14;78184.53;;;-141.45;100.00
31403;BME280;18039;52.188;21.024;2023-02-04T04:05:41;78196.72;;;-141.45;99.86
31403;BME280;18039;52.188;21.024;2023-02-04T04:08:08;78208.88;;;-141.45;99.72
31403;BME280;18039;52.188;21.024;2023-02-04T04:10:35;78210.91;;;-141.45;99.37
31403;BME280;18039;52.188;21.024;2023-02-04T04:13:03;78231.19;;;-141.45;99.33
31403;BME280;18039;52.188;21.024;2023-02-04T04:15:30;78237.28;;;-141.45;98.90
31403;BME280;18039;52.188;21.024;2023-02-04T04:17:58;78239.28;;;-141.45;98.98
31403;BME280;18039;52.188;21.024;2023-02-04T04:20:24;78247.41;;;-141.45;98.76
31403;BME280;18039;52.188;21.024;2023-02-04T04:22:54;78259.56;;;-141.45;98.84
31403;BME280;18039;52.188;21.024;2023-02-04T04:25:20;78273.78;;;-141.45;98.83
31403;BME280;18039;52.188;21.024;2023-02-04T04:27:48;78283.91;;;-141.45;98.98
31403;BME280;18039;52.188;21.024;2023-02-04T04:30:15;78292.03;;;-141.45;98.90
31403;BME280;18039;52.188;21.024;2023-02-04T04:32:42;78296.09;;;-141.45;98.51
31403;BME280;18039;52.188;21.024;2023-02-04T04:35:09;78308.25;;;-141.45;98.60
31403;BME280;18039;52.188;21.024;2023-02-04T04:37:36;78322.44;;;-141.45;98.82
31403;BME280;18039;52.188;21.024;2023-02-04T04:40:03;78320.41;;;-141.45;98.63
31403;BME280;18039;52.188;21.024;2023-02-04T04:42:31;78326.50;;;-141.45;98.36
31403;BME280;18039;52.188;21.024;2023-02-04T04:44:58;78324.47;;;-141.45;98.08
31403;BME280;18039;52.188;21.024;2023-02-04T04:47:25;78322.44;;;-141.45;98.11
31403;BME280;18039;52.188;21.024;2023-02-04T04:49:52;78324.47;;;-141.45;97.81
31403;BME280;18039;52.188;21.024;2023-02-04T04:52:19;78344.75;;;-141.45;97.92
31403;BME280;18039;52.188;21.024;2023-02-04T04:54:46;78348.81;;;-141.45;97.78
31403;BME280;18039;52.188;21.024;2023-02-04T04:57:14;78348.81;;;-141.45;98.22
31403;BME280;18039;52.188;21.024;2023-02-04T04:59:40;78352.88;;;-141.45;97.73
31403;BME280;18039;52.188;21.024;2023-02-04T05:02:08;78348.81;;;-141.45;97.73
31403;BME280;18039;52.188;21.024;2023-02-04T05:04:35;78360.97;;;-141.45;97.93
31403;BME280;18039;52.188;21.024;2023-02-04T05:07:02;78360.97;;;-141.45;97.65
31403;BME280;18039;52.188;21.024;2023-02-04T05:09:29;78352.88;;;-141.45;97.39
31403;BME280;18039;52.188;21.024;2023-02-04T05:11:56;78373.16;;;-141.45;97.40
31403;BME280;18039;52.188;21.024;2023-02-04T05:14:23;78381.25;;;-141.45;97.91
31403;BME280;18039;52.188;21.024;2023-02-04T05:16:51;78381.25;;;-141.45;97.49
31403;BME280;18039;52.188;21.024;2023-02-04T05:19:17;78381.25;;;-141.45;97.95
31403;BME280;18039;52.188;21.024;2023-02-04T05:21:45;78393.44;;;-141.45;97.87
31403;BME280;18039;52.188;21.024;2023-02-04T05:24:12;78389.38;;;-141.45;97.75
31403;BME280;18039;52.188;21.024;2023-02-04T05:26:39;78401.53;;;-141.45;97.35
31403;BME280;18039;52.188;21.024;2023-02-04T05:29:06;78397.50;;;-141.45;97.37
31403;BME280;18039;52.188;21.024;2023-02-04T05:31:35;78397.50;;;-141.45;97.43
31403;BME280;18039;52.188;21.024;2023-02-04T05:34:02;78395.47;;;-141.45;97.24
31403;BME280;18039;52.188;21.024;2023-02-04T05:36:30;78403.56;;;-141.45;96.98
31403;BME280;18039;52.188;21.024;2023-02-04T05:38:57;78397.50;;;-141.45;96.51
31403;BME280;18039;52.188;21.024;2023-02-04T05:41:25;78409.66;;;-141.45;96.05
31403;BME280;18039;52.188;21.024;2023-02-04T05:43:52;78401.53;;;-141.45;95.64
31403;BME280;18039;52.188;21.024;2023-02-04T05:46:19;78415.75;;;-141.45;95.73
31403;BME280;18039;52.188;21.024;2023-02-04T05:48:46;78421.81;;;-141.45;95.53
31403;BME280;18039;52.188;21.024;2023-02-04T05:51:13;78417.78;;;-141.45;95.47
31403;BME280;18039;52.188;21.024;2023-02-04T05:53:40;78417.78;;;-141.45;94.72
31403;BME280;18039;52.188;21.024;2023-02-04T05:56:08;78429.94;;;-141.45;94.80
31403;BME280;18039;52.188;21.024;2023-02-04T05:58:34;78436.03;;;-141.45;94.34
31403;BME280;18039;52.188;21.024;2023-02-04T06:01:02;78446.16;;;-141.45;93.29
31403;BME280;18039;52.188;21.024;2023-02-04T06:03:30;78454.28;;;-141.45;93.41
31403;BME280;18039;52.188;21.024;2023-02-04T06:05:58;78450.22;;;-141.45;93.13
31403;BME280;18039;52.188;21.024;2023-02-04T06:08:25;78478.63;;;-141.45;93.21
31403;BME280;18039;52.188;21.024;2023-02-04T06:10:52;78470.50;;;-141.45;93.24
31403;BME280;18039;52.188;21.024;2023-02-04T06:13:19;78478.63;;;-141.45;92.75
31403;BME280;18039;52.188;21.024;2023-02-04T06:15:47;78494.84;;;-141.45;92.61
31403;BME280;18039;52.188;21.024;2023-02-04T06:18:14;78504.97;;;-141.45;92.69
31403;BME280;18039;52.188;21.024;2023-02-04T06:20:41;78515.13;;;-141.45;93.13
31403;BME280;18039;52.188;21.024;2023-02-04T06:23:08;78519.19;;;-141.45;92.65
31403;BME280;18039;52.188;21.024;2023-02-04T06:25:36;78527.28;;;-141.45;92.67
31403;BME280;18039;52.188;21.024;2023-02-04T06:28:03;78533.38;;;-141.45;92.65
31403;BME280;18039;52.188;21.024;2023-02-04T06:30:31;78535.41;;;-141.45;92.80
31403;BME280;18039;52.188;21.024;2023-02-04T06:32:58;78551.63;;;-141.45;92.34
31403;BME280;18039;52.188;21.024;2023-02-04T06:35:25;78571.91;;;-141.45;92.19
31403;BME280;18039;52.188;21.024;2023-02-04T06:37:52;78567.84;;;-141.45;91.80
31403;BME280;18039;52.188;21.024;2023-02-04T06:40:20;78584.09;;;-141.45;91.63
31403;BME280;18039;52.188;21.024;2023-02-04T06:42:47;78596.25;;;-141.45;91.93
31403;BME280;18039;52.188;21.024;2023-02-04T06:45:14;78616.53;;;-141.45;91.11
31403;BME280;18039;52.188;21.024;2023-02-04T06:47:41;78628.72;;;-141.45;91.13
31403;BME280;18039;52.188;21.024;2023-02-04T06:50:09;78649.00;;;-141.45;91.68
31403;BME280;18039;52.188;21.024;2023-02-04T06:52:36;78665.22;;;-141.45;91.46
31403;BME280;18039;52.188;21.024;2023-02-04T06:55:03;78677.38;;;-141.45;91.73
31403;BME280;18039;52.188;21.024;2023-02-04T06:57:30;78685.50;;;-141.45;91.82
31403;BME280;18039;52.188;21.024;2023-02-04T06:59:57;78689.56;;;-141.45;91.34
31403;BME280;18039;52.188;21.024;2023-02-04T07:02:24;78709.84;;;-141.45;91.10
31403;BME280;18039;52.188;21.024;2023-02-04T07:04:52;78701.72;;;-141.45;90.91
31403;BME280;18039;52.188;21.024;2023-02-04T07:07:19;78709.84;;;-141.45;91.28
31403;BME280;18039;52.188;21.024;2023-02-04T07:09:46;78722.00;;;-141.45;91.52
31403;BME280;18039;52.188;21.024;2023-02-04T07:12:13;78713.91;;;-141.45;91.02
31403;BME280;18039;52.188;21.024;2023-02-04T07:14:42;78726.06;;;-141.45;91.51
31403;BME280;18039;52.188;21.024;2023-02-04T07:17:09;78726.06;;;-141.45;91.70
31403;BME280;18039;52.188;21.024;2023-02-04T07:19:36;78738.22;;;-141.45;91.49
31403;BME280;18039;52.188;21.024;2023-02-04T07:22:03;78746.34;;;-141.45;91.77
31403;BME280;18039;52.188;21.024;2023-02-04T07:24:31;78748.38;;;-141.45;91.53
31403;BME280;18039;52.188;21.024;2023-02-04T07:27:17;78750.41;;;-141.45;91.62
31403;BME280;18039;52.188;21.024;2023-02-04T07:29:44;78766.63;;;-141.45;91.66
31403;BME280;18039;52.188;21.024;2023-02-04T07:32:11;78768.66;;;-141.45;90.77
31403;BME280;18039;52.188;21.024;2023-02-04T07:34:38;78786.91;;;-141.45;90.77
31403;BME280;18039;52.188;21.024;2023-02-04T07:37:05;78778.81;;;-141.45;90.46
31403;BME280;18039;52.188;21.024;2023-02-04T07:39:32;78782.84;;;-141.45;89.79
31403;BME280;18039;52.188;21.024;2023-02-04T07:42:00;78786.91;;;-141.45;88.95
31403;BME280;18039;52.188;21.024;2023-02-04T07:44:33;78790.97;;;-141.45;88.81
31403;BME280;18039;52.188;21.024;2023-02-04T07:47:00;78790.97;;;-141.45;88.82
31403;BME280;18039;52.188;21.024;2023-02-04T07:49:27;78786.91;;;-141.45;88.88
31403;BME280;18039;52.188;21.024;2023-02-04T07:51:54;78790.97;;;-141.45;88.24
31403;BME280;18039;52.188;21.024;2023-02-04T07:54:23;78803.16;;;-141.45;87.03
31403;BME280;18039;52.188;21.024;2023-02-04T07:56:50;78805.19;;;-141.45;86.88
31403;BME280;18039;52.188;21.024;2023-02-04T07:59:17;78805.19;;;-141.45;86.58
31403;BME280;18039;52.188;21.024;2023-02-04T08:01:44;78807.19;;;-141.45;85.79
31403;BME280;18039;52.188;21.024;2023-02-04T08:04:13;78811.25;;;-141.45;86.20
31403;BME280;18039;52.188;21.024;2023-02-04T08:06:40;78813.28;;;-141.45;86.16
31403;BME280;18039;52.188;21.024;2023-02-04T08:09:08;78815.31;;;-141.45;85.52
31403;BME280;18039;52.188;21.024;2023-02-04T08:11:35;78809.22;;;-141.45;85.31
31403;BME280;18039;52.188;21.024;2023-02-04T08:14:02;78807.19;;;-141.45;85.08
31403;BME280;18039;52.188;21.024;2023-02-04T08:16:29;78815.31;;;-141.45;83.85
31403;BME280;18039;52.188;21.024;2023-02-04T08:18:56;78813.28;;;-141.45;83.90
31403;BME280;18039;52.188;21.024;2023-02-04T08:21:23;78819.38;;;-141.45;82.61
31403;BME280;18039;52.188;21.024;2023-02-04T08:23:50;78825.47;;;-141.45;83.37
31403;BME280;18039;52.188;21.024;2023-02-04T08:26:17;78819.38;;;-141.45;83.62
31403;BME280;18039;52.188;21.024;2023-02-04T08:28:44;78827.47;;;-141.45;83.05
31403;BME280;18039;52.188;21.024;2023-02-04T08:31:12;78831.53;;;-141.45;82.64
31403;BME280;18039;52.188;21.024;2023-02-04T08:33:39;78835.59;;;-141.45;82.29
31403;BME280;18039;52.188;21.024;2023-02-04T08:36:07;78831.53;;;-141.45;81.98
31403;BME280;18039;52.188;21.024;2023-02-04T08:38:34;78835.59;;;-141.45;82.21
31403;BME280;18039;52.188;21.024;2023-02-04T08:41:02;78831.53;;;-141.45;82.69
31403;BME280;18039;52.188;21.024;2023-02-04T08:43:29;78835.59;;;-141.45;82.49
31403;BME280;18039;52.188;21.024;2023-02-04T08:45:56;78843.72;;;-141.45;82.72
31403;BME280;18039;52.188;21.024;2023-02-04T08:48:23;78843.72;;;-141.45;82.36
31403;BME280;18039;52.188;21.024;2023-02-04T08:50:50;78843.72;;;-141.45;82.50
31403;BME280;18039;52.188;21.024;2023-02-04T08:53:17;78841.69;;;-141.45;82.05
31403;BME280;18039;52.188;21.024;2023-02-04T08:55:44;78835.59;;;-141.45;80.47
31403;BME280;18039;52.188;21.024;2023-02-04T08:58:11;78831.53;;;-141.45;80.12
31403;BME280;18039;52.188;21.024;2023-02-04T09:00:38;78839.66;;;-141.45;79.84
31403;BME280;18039;52.188;21.024;2023-02-04T09:03:05;78835.59;;;-141.45;76.15
31403;BME280;18039;52.188;21.024;2023-02-04T09:05:33;78841.69;;;-141.45;75.49
31403;BME280;18039;52.188;21.024;2023-02-04T09:08:00;78855.88;;;-141.45;74.68
31403;BME280;18039;52.188;21.024;2023-02-04T09:10:27;78864.00;;;-141.45;75.17
31403;BME280;18039;52.188;21.024;2023-02-04T09:12:54;78864.00;;;-141.45;74.67
31403;BME280;18039;52.188;21.024;2023-02-04T09:15:22;78868.06;;;-141.45;74.30
31403;BME280;18039;52.188;21.024;2023-02-04T09:17:52;78859.94;;;-141.45;75.09
31403;BME280;18039;52.188;21.024;2023-02-04T09:20:26;78847.78;;;-141.45;73.36
31403;BME280;18039;52.188;21.024;2023-02-04T09:22:55;78843.72;;;-141.45;73.47
31403;BME280;18039;52.188;21.024;2023-02-04T09:25:23;78835.59;;;-141.45;73.96
31403;BME280;18039;52.188;21.024;2023-02-04T09:27:50;78835.59;;;-141.45;71.34
31403;BME280;18039;52.188;21.024;2023-02-04T09:30:17;78823.44;;;-141.45;71.30
31403;BME280;18039;52.188;21.024;2023-02-04T09:32:44;78819.38;;;-141.45;72.13
31403;BME280;18039;52.188;21.024;2023-02-04T09:35:11;78819.38;;;-141.45;70.51
31403;BME280;18039;52.188;21.024;2023-02-04T09:37:38;78819.38;;;-141.45;71.39
31403;BME280;18039;52.188;21.024;2023-02-04T09:40:05;78815.31;;;-141.45;71.19
31403;BME280;18039;52.188;21.024;2023-02-04T09:42:33;78805.19;;;-141.45;70.53
31403;BME280;18039;52.188;21.024;2023-02-04T09:45:00;78809.22;;;-141.45;70.56
31403;BME280;18039;52.188;21.024;2023-02-04T09:47:29;78795.03;;;-141.45;70.06
31403;BME280;18039;52.188;21.024;2023-02-04T09:49:57;78782.84;;;-141.45;70.07
31403;BME280;18039;52.188;21.024;2023-02-04T09:52:26;78799.09;;;-141.45;68.63
31403;BME280;18039;52.188;21.024;2023-02-04T09:54:53;78790.97;;;-141.45;68.51
31403;BME280;18039;52.188;21.024;2023-02-04T09:57:21;78786.91;;;-141.45;69.64
31403;BME280;18039;52.188;21.024;2023-02-04T09:59:48;78803.16;;;-141.45;68.87
31403;BME280;18039;52.188;21.024;2023-02-04T10:02:25;78784.88;;;-141.45;68.83
31403;BME280;18039;52.188;21.024;2023-02-04T10:04:55;78786.91;;;-141.45;69.48
31403;BME280;18039;52.188;21.024;2023-02-04T10:07:23;78799.09;;;-141.45;69.95
31403;BME280;18039;52.188;21.024;2023-02-04T10:09:53;78807.19;;;-141.45;69.05
31403;BME280;18039;52.188;21.024;2023-02-04T10:12:20;78803.16;;;-141.45;68.91
31403;BME280;18039;52.188;21.024;2023-02-04T10:14:48;78831.53;;;-141.45;69.27
31403;BME280;18039;52.188;21.024;2023-02-04T10:17:19;78811.25;;;-141.45;69.34
31403;BME280;18039;52.188;21.024;2023-02-04T10:19:48;78819.38;;;-141.45;69.86
31403;BME280;18039;52.188;21.024;2023-02-04T10:22:19;78815.31;;;-141.45;70.34
31403;BME280;18039;52.188;21.024;2023-02-04T10:24:46;78795.03;;;-141.45;70.90
31403;BME280;18039;52.188;21.024;2023-02-04T10:27:13;78793.00;;;-141.45;70.08
31403;BME280;18039;52.188;21.024;2023-02-04T10:29:57;78790.97;;;-141.45;70.79
31403;BME280;18039;52.188;21.024;2023-02-04T10:32:29;78778.81;;;-141.45;69.30
31403;BME280;18039;52.188;21.024;2023-02-04T10:35:00;78770.69;;;-141.45;69.51
31403;BME280;18039;52.188;21.024;2023-02-04T10:37:28;78780.84;;;-141.45;70.25
31403;BME280;18039;52.188;21.024;2023-02-04T10:39:56;78811.25;;;-141.45;68.91
31403;BME280;18039;52.188;21.024;2023-02-04T10:42:26;78803.16;;;-141.45;69.51
31403;BME280;18039;52.188;21.024;2023-02-04T10:44:53;78788.94;;;-141.45;70.85
31403;BME280;18039;52.188;21.024;2023-02-04T10:47:25;78766.63;;;-141.45;71.03
31403;BME280;18039;52.188;21.024;2023-02-04T10:49:57;78762.56;;;-141.45;70.46
31403;BME280;18039;52.188;21.024;2023-02-04T10:52:38;78778.81;;;-141.45;70.13
31403;BME280;18039;52.188;21.024;2023-02-04T10:55:11;78790.97;;;-141.45;70.95
31403;BME280;18039;52.188;21.024;2023-02-04T10:57:41;78790.97;;;-141.45;71.49
31403;BME280;18039;52.188;21.024;2023-02-04T11:00:20;78803.16;;;-141.45;70.06
31403;BME280;18039;52.188;21.024;2023-02-04T11:03:08;78786.91;;;-141.45;71.74
31403;BME280;18039;52.188;21.024;2023-02-04T11:05:37;78766.63;;;-141.45;70.20
31403;BME280;18039;52.188;21.024;2023-02-04T11:08:25;78758.53;;;-141.45;69.97
31403;BME280;18039;52.188;21.024;2023-02-04T11:11:28;78762.56;;;-141.45;68.96
31403;BME280;18039;52.188;21.024;2023-02-04T11:16:26;78778.81;;;-141.45;69.12
31403;BME280;18039;52.188;21.024;2023-02-04T11:19:03;78772.72;;;-141.45;69.46
31403;BME280;18039;52.188;21.024;2023-02-04T11:24:05;78730.13;;;-141.45;68.14
31403;BME280;18039;52.188;21.024;2023-02-04T11:26:34;78746.34;;;-141.45;68.38
31403;BME280;18039;52.188;21.024;2023-02-04T11:37:12;78758.53;;;-141.45;69.88
31403;BME280;18039;52.188;21.024;2023-02-04T11:42:25;78770.69;;;-141.45;69.10
31403;BME280;18039;52.188;21.024;2023-02-04T11:45:13;78780.84;;;-141.45;68.38
31403;BME280;18039;52.188;21.024;2023-02-04T11:47:41;78772.72;;;-141.45;69.09
31403;BME280;18039;52.188;21.024;2023-02-04T11:50:32;78750.41;;;-141.45;70.37
31403;BME280;18039;52.188;21.024;2023-02-04T11:53:01;78738.22;;;-141.45;70.48
31403;BME280;18039;52.188;21.024;2023-02-04T11:55:33;78746.34;;;-141.45;71.46
31403;BME280;18039;52.188;21.024;2023-02-04T11:58:01;78746.34;;;-141.45;71.21
31403;BME280;18039;52.188;21.024;2023-02-04T12:00:31;78744.31;;;-141.45;71.74
31403;BME280;18039;52.188;21.024;2023-02-04T12:03:03;78734.19;;;-141.45;71.65
31403;BME280;18039;52.188;21.024;2023-02-04T12:08:24;78774.75;;;-141.45;71.93
31403;BME280;18039;52.188;21.024;2023-02-04T12:11:11;78793.00;;;-141.45;73.19
31403;BME280;18039;52.188;21.024;2023-02-04T12:13:50;78782.84;;;-141.45;73.54
31403;BME280;18039;52.188;21.024;2023-02-04T12:16:19;78768.66;;;-141.45;73.73
31403;BME280;18039;52.188;21.024;2023-02-04T12:18:47;78768.66;;;-141.45;72.78
31403;BME280;18039;52.188;21.024;2023-02-04T12:21:15;78790.97;;;-141.45;72.04
31403;BME280;18039;52.188;21.024;2023-02-04T12:23:42;78795.03;;;-141.45;72.94
31403;BME280;18039;52.188;21.024;2023-02-04T12:26:10;78807.19;;;-141.45;72.35
31403;BME280;18039;52.188;21.024;2023-02-04T12:28:37;78784.88;;;-141.45;72.81
31403;BME280;18039;52.188;21.024;2023-02-04T12:31:04;78786.91;;;-141.45;72.91
31403;BME280;18039;52.188;21.024;2023-02-04T12:33:32;78807.19;;;-141.45;73.16
31403;BME280;18039;52.188;21.024;2023-02-04T12:35:59;78803.16;;;-141.45;72.89
31403;BME280;18039;52.188;21.024;2023-02-04T12:38:26;78790.97;;;-141.45;74.16
31403;BME280;18039;52.188;21.024;2023-02-04T12:40:54;78782.84;;;-141.45;72.93
31403;BME280;18039;52.188;21.024;2023-02-04T12:43:21;78774.75;;;-141.45;72.46
31403;BME280;18039;52.188;21.024;2023-02-04T12:45:48;78786.91;;;-141.45;71.90
31403;BME280;18039;52.188;21.024;2023-02-04T12:48:15;78782.84;;;-141.45;72.18
31403;BME280;18039;52.188;21.024;2023-02-04T12:50:44;78811.25;;;-141.45;70.48
31403;BME280;18039;52.188;21.024;2023-02-04T12:53:11;78819.38;;;-141.45;71.23